sensor_id;sensor_type;location;lat;lon;timestamp;temperature;humidity
2945;DHT22;1482;51.398;7.128;2023-03-01T00:01:27;-0.10;1.00
2945;DHT22;1482;51.398;7.128;2023-03-01T00:03:54;-0.20;1.00
2945;DHT22;1482;51.398;7.128;2023-03-01T00:06:20;-0.30;1.00
2945;DHT22;1482;51.398;7.128;2023-03-01T00:08:46;-0.30;1.00
2945;DHT22;1482;51.398;7.128;2023-03-01T00:11:20;-0.30;1.00
2945;DHT22;1482;51.398;7.128;2023-03-01T00:13:49;-0.40;1.00
2945;DHT22;1482;51.398;7.128;2023-03-01T00:16:26;-0.50;1.00
2945;DHT22;1482;51.398;7.128;2023-03-01T00:18:54;-0.40;1.00
2945;DHT22;1482;51.398;7.128;2023-03-01T00:21:20;-0.50;1.00
2945;DHT22;1482;51.398;7.128;2023-03-01T00:23:47;-0.50;1.00
2945;DHT22;1482;51.398;7.128;2023-03-01T00:26:15;-0.50;1.00
2945;DHT22;1482;51.398;7.128;2023-03-01T00:28:42;-0.50;1.00
2945;DHT22;1482;51.398;7.128;2023-03-01T00:31:10;-0.60;1.00
2945;DHT22;1482;51.398;7.128;2023-03-01T00:33:36;-0.60;1.00
2945;DHT22;1482;51.398;7.128;2023-03-01T00:36:02;-0.80;1.00
2945;DHT22;1482;51.398;7.128;2023-03-01T00:38:28;-0.70;1.00
2945;DHT22;1482;51.398;7.128;2023-03-01T00:40:54;-0.70;1.00
2945;DHT22;1482;51.398;7.128;2023-03-01T00:43:20;-0.80;1.00
2945;DHT22;1482;51.398;7.128;2023-03-01T00:45:45;-0.80;1.00
2945;DHT22;1482;51.398;7.128;2023-03-01T00:48:11;-0.80;1.00
2945;DHT22;1482;51.398;7.128;2023-03-01T00:50:36;-0.90;1.00
2945;DHT22;1482;51.398;7.128;2023-03-01T00:53:02;-0.80;1.00
2945;DHT22;1482;51.398;7.128;2023-03-01T00:55:28;-0.80;1.00
2945;DHT22;1482;51.398;7.128;2023-03-01T00:57:53;-0.70;1.00
2945;DHT22;1482;51.398;7.128;2023-03-01T01:00:20;-0.80;1.00
2945;DHT22;1482;51.398;7.128;2023-03-01T01:02:45;-0.80;1.00
2945;DHT22;1482;51.398;7.128;2023-03-01T01:05:11;-0.80;1.00
2945;DHT22;1482;51.398;7.128;2023-03-01T01:07:37;-0.80;1.00
2945;DHT22;1482;51.398;7.128;2023-03-01T01:10:03;-0.80;1.00
2945;DHT22;1482;51.398;7.128;2023-03-01T01:12:29;-0.90;1.00
2945;DHT22;1482;51.398;7.128;2023-03-01T01:14:54;-0.90;1.00
2945;DHT22;1482;51.398;7.128;2023-03-01T01:17:20;-0.80;1.00
2945;DHT22;1482;51.398;7.128;2023-03-01T01:19:46;-0.80;1.00
2945;DHT22;1482;51.398;7.128;2023-03-01T01:22:11;-0.90;1.00
2945;DHT22;1482;51.398;7.128;2023-03-01T01:24:37;-0.90;1.00
2945;DHT22;1482;51.398;7.128;2023-03-01T01:27:02;-1.00;1.00
2945;DHT22;1482;51.398;7.128;2023-03-01T01:29:28;-1.10;1.00
2945;DHT22;1482;51.398;7.128;2023-03-01T01:31:53;-1.10;5.00
2945;DHT22;1482;51.398;7.128;2023-03-01T01:34:21;-1.10;4.20
2945;DHT22;1482;51.398;7.128;2023-03-01T01:36:52;-1.10;4.60
2945;DHT22;1482;51.398;7.128;2023-03-01T01:39:22;-1.20;8.40
2945;DHT22;1482;51.398;7.128;2023-03-01T01:41:48;-1.10;6.40
2945;DHT22;1482;51.398;7.128;2023-03-01T01:44:17;-1.10;1.00
2945;DHT22;1482;51.398;7.128;2023-03-01T01:46:50;-1.00;1.00
2945;DHT22;1482;51.398;7.128;2023-03-01T01:49:37;-1.00;1.00
2945;DHT22;1482;51.398;7.128;2023-03-01T01:52:19;-1.20;1.00
2945;DHT22;1482;51.398;7.128;2023-03-01T01:57:40;-1.10;1.00
2945;DHT22;1482;51.398;7.128;2023-03-01T02:00:17;-1.20;1.10
2945;DHT22;1482;51.398;7.128;2023-03-01T02:02:43;-1.20;4.20
2945;DHT22;1482;51.398;7.128;2023-03-01T02:05:16;-1.30;8.50
2945;DHT22;1482;51.398;7.128;2023-03-01T02:07:45;-1.30;10.00
2945;DHT22;1482;51.398;7.128;2023-03-01T02:10:11;-1.30;10.90
2945;DHT22;1482;51.398;7.128;2023-03-01T02:12:37;-1.30;10.00
2945;DHT22;1482;51.398;7.128;2023-03-01T02:15:04;-1.30;16.70
2945;DHT22;1482;51.398;7.128;2023-03-01T02:17:30;-1.30;7.20
2945;DHT22;1482;51.398;7.128;2023-03-01T02:22:30;-1.40;18.90
2945;DHT22;1482;51.398;7.128;2023-03-01T02:30:35;-1.50;28.40
2945;DHT22;1482;51.398;7.128;2023-03-01T02:33:03;-1.50;27.10
2945;DHT22;1482;51.398;7.128;2023-03-01T02:35:35;-1.60;34.70
2945;DHT22;1482;51.398;7.128;2023-03-01T02:38:02;-1.60;44.20
2945;DHT22;1482;51.398;7.128;2023-03-01T02:40:30;-1.50;42.00
2945;DHT22;1482;51.398;7.128;2023-03-01T02:42:58;-1.50;33.30
2945;DHT22;1482;51.398;7.128;2023-03-01T02:45:25;-1.50;29.80
2945;DHT22;1482;51.398;7.128;2023-03-01T02:47:54;-1.60;36.40
2945;DHT22;1482;51.398;7.128;2023-03-01T02:53:01;-1.60;41.70
2945;DHT22;1482;51.398;7.128;2023-03-01T02:55:30;-1.60;43.00
2945;DHT22;1482;51.398;7.128;2023-03-01T02:57:56;-1.60;45.40
2945;DHT22;1482;51.398;7.128;2023-03-01T03:00:29;-1.60;41.20
2945;DHT22;1482;51.398;7.128;2023-03-01T03:02:58;-1.60;32.30
2945;DHT22;1482;51.398;7.128;2023-03-01T03:05:29;-1.60;36.30
2945;DHT22;1482;51.398;7.128;2023-03-01T03:07:56;-1.70;41.60
2945;DHT22;1482;51.398;7.128;2023-03-01T03:10:24;-1.70;43.10
2945;DHT22;1482;51.398;7.128;2023-03-01T03:12:53;-1.80;49.80
2945;DHT22;1482;51.398;7.128;2023-03-01T03:15:19;-1.80;52.50
2945;DHT22;1482;51.398;7.128;2023-03-01T03:17:46;-1.80;76.90
2945;DHT22;1482;51.398;7.128;2023-03-01T03:20:13;-1.90;85.80
2945;DHT22;1482;51.398;7.128;2023-03-01T03:22:45;-1.80;90.00
2945;DHT22;1482;51.398;7.128;2023-03-01T03:25:10;-1.90;99.90
2945;DHT22;1482;51.398;7.128;2023-03-01T03:27:37;-1.80;99.90
2945;DHT22;1482;51.398;7.128;2023-03-01T03:30:04;-1.80;99.90
2945;DHT22;1482;51.398;7.128;2023-03-01T03:32:37;-1.80;92.80
2945;DHT22;1482;51.398;7.128;2023-03-01T03:35:04;-1.80;82.50
2945;DHT22;1482;51.398;7.128;2023-03-01T03:37:39;-1.80;80.90
2945;DHT22;1482;51.398;7.128;2023-03-01T03:40:24;-1.80;88.70
2945;DHT22;1482;51.398;7.128;2023-03-01T03:42:50;-1.80;99.90
2945;DHT22;1482;51.398;7.128;2023-03-01T03:45:16;-1.90;99.90
2945;DHT22;1482;51.398;7.128;2023-03-01T03:47:42;-1.90;99.90
2945;DHT22;1482;51.398;7.128;2023-03-01T03:50:10;-1.90;99.90
2945;DHT22;1482;51.398;7.128;2023-03-01T03:52:35;-1.90;99.90
2945;DHT22;1482;51.398;7.128;2023-03-01T03:55:01;-2.00;98.60
2945;DHT22;1482;51.398;7.128;2023-03-01T03:57:26;-1.90;99.90
2945;DHT22;1482;51.398;7.128;2023-03-01T03:59:52;-1.90;98.70
2945;DHT22;1482;51.398;7.128;2023-03-01T04:02:17;-1.90;90.70
2945;DHT22;1482;51.398;7.128;2023-03-01T04:04:48;-1.90;85.50
2945;DHT22;1482;51.398;7.128;2023-03-01T04:07:15;-1.90;92.40
2945;DHT22;1482;51.398;7.128;2023-03-01T04:09:42;-1.90;95.70
2945;DHT22;1482;51.398;7.128;2023-03-01T04:12:08;-2.00;98.30
2945;DHT22;1482;51.398;7.128;2023-03-01T04:14:33;-1.90;98.50
2945;DHT22;1482;51.398;7.128;2023-03-01T04:16:59;-2.00;99.90
2945;DHT22;1482;51.398;7.128;2023-03-01T04:19:24;-2.00;99.90
2945;DHT22;1482;51.398;7.128;2023-03-01T04:21:50;-2.10;99.90
2945;DHT22;1482;51.398;7.128;2023-03-01T04:24:15;-2.10;99.90
2945;DHT22;1482;51.398;7.128;2023-03-01T04:26:41;-2.20;99.90
2945;DHT22;1482;51.398;7.128;2023-03-01T04:29:07;-2.30;99.90
2945;DHT22;1482;51.398;7.128;2023-03-01T04:31:32;-2.20;99.90
2945;DHT22;1482;51.398;7.128;2023-03-01T04:33:59;-2.20;99.90
2945;DHT22;1482;51.398;7.128;2023-03-01T04:36:27;-2.20;99.90
2945;DHT22;1482;51.398;7.128;2023-03-01T04:38:54;-2.20;99.90
2945;DHT22;1482;51.398;7.128;2023-03-01T04:41:21;-2.10;99.90
2945;DHT22;1482;51.398;7.128;2023-03-01T04:43:48;-2.20;99.90
2945;DHT22;1482;51.398;7.128;2023-03-01T04:46:16;-2.20;99.90
2945;DHT22;1482;51.398;7.128;2023-03-01T04:48:43;-2.30;99.90
2945;DHT22;1482;51.398;7.128;2023-03-01T04:51:09;-2.30;99.90
2945;DHT22;1482;51.398;7.128;2023-03-01T04:53:39;-2.40;99.90
2945;DHT22;1482;51.398;7.128;2023-03-01T04:56:04;-2.40;99.90
2945;DHT22;1482;51.398;7.128;2023-03-01T04:58:30;-2.50;99.90
2945;DHT22;1482;51.398;7.128;2023-03-01T05:00:56;-2.40;99.90
2945;DHT22;1482;51.398;7.128;2023-03-01T05:03:22;-2.40;99.90
2945;DHT22;1482;51.398;7.128;2023-03-01T05:05:49;-2.40;99.90
2945;DHT22;1482;51.398;7.128;2023-03-01T05:08:16;-2.40;99.90
2945;DHT22;1482;51.398;7.128;2023-03-01T05:10:51;-2.50;99.90
2945;DHT22;1482;51.398;7.128;2023-03-01T05:13:18;-2.50;99.90
2945;DHT22;1482;51.398;7.128;2023-03-01T05:15:54;-2.50;99.90
2945;DHT22;1482;51.398;7.128;2023-03-01T05:18:20;-2.50;99.90
2945;DHT22;1482;51.398;7.128;2023-03-01T05:20:46;-2.60;99.90
2945;DHT22;1482;51.398;7.128;2023-03-01T05:23:12;-2.50;99.90
2945;DHT22;1482;51.398;7.128;2023-03-01T05:25:38;-2.40;99.90
2945;DHT22;1482;51.398;7.128;2023-03-01T05:28:07;-2.40;99.90
2945;DHT22;1482;51.398;7.128;2023-03-01T05:30:36;-2.60;99.90
2945;DHT22;1482;51.398;7.128;2023-03-01T05:33:04;-2.50;99.90
2945;DHT22;1482;51.398;7.128;2023-03-01T05:35:32;-2.60;99.90
2945;DHT22;1482;51.398;7.128;2023-03-01T05:37:58;-2.70;99.90
2945;DHT22;1482;51.398;7.128;2023-03-01T05:40:24;-2.70;99.90
2945;DHT22;1482;51.398;7.128;2023-03-01T05:42:53;-2.70;99.90
2945;DHT22;1482;51.398;7.128;2023-03-01T05:45:19;-2.70;99.90
2945;DHT22;1482;51.398;7.128;2023-03-01T05:47:48;-2.70;99.90
2945;DHT22;1482;51.398;7.128;2023-03-01T05:50:16;-2.70;99.90
2945;DHT22;1482;51.398;7.128;2023-03-01T05:52:49;-2.70;99.90
2945;DHT22;1482;51.398;7.128;2023-03-01T05:55:21;-2.70;99.90
2945;DHT22;1482;51.398;7.128;2023-03-01T05:57:47;-2.80;99.90
2945;DHT22;1482;51.398;7.128;2023-03-01T06:00:14;-2.90;99.90
2945;DHT22;1482;51.398;7.128;2023-03-01T06:02:40;-2.80;99.90
2945;DHT22;1482;51.398;7.128;2023-03-01T06:05:07;-2.80;99.90
2945;DHT22;1482;51.398;7.128;2023-03-01T06:07:34;-2.70;99.90
2945;DHT22;1482;51.398;7.128;2023-03-01T06:10:00;-2.70;99.90
2945;DHT22;1482;51.398;7.128;2023-03-01T06:12:26;-2.60;99.90
2945;DHT22;1482;51.398;7.128;2023-03-01T06:14:51;-2.70;99.90
2945;DHT22;1482;51.398;7.128;2023-03-01T06:17:17;-2.70;99.90
2945;DHT22;1482;51.398;7.128;2023-03-01T06:19:42;-2.70;99.90
2945;DHT22;1482;51.398;7.128;2023-03-01T06:22:08;-2.70;99.90
2945;DHT22;1482;51.398;7.128;2023-03-01T06:24:34;-2.70;99.90
2945;DHT22;1482;51.398;7.128;2023-03-01T06:26:59;-2.70;99.90
2945;DHT22;1482;51.398;7.128;2023-03-01T06:29:25;-2.60;99.90
2945;DHT22;1482;51.398;7.128;2023-03-01T06:31:51;-2.60;99.90
2945;DHT22;1482;51.398;7.128;2023-03-01T06:34:16;-2.50;99.90
2945;DHT22;1482;51.398;7.128;2023-03-01T06:36:43;-2.50;99.90
2945;DHT22;1482;51.398;7.128;2023-03-01T06:39:08;-2.40;99.90
2945;DHT22;1482;51.398;7.128;2023-03-01T06:41:34;-2.50;99.90
2945;DHT22;1482;51.398;7.128;2023-03-01T06:43:59;-2.50;99.90
2945;DHT22;1482;51.398;7.128;2023-03-01T06:46:25;-2.40;99.90
2945;DHT22;1482;51.398;7.128;2023-03-01T06:48:51;-2.40;99.90
2945;DHT22;1482;51.398;7.128;2023-03-01T06:51:16;-2.40;99.90
2945;DHT22;1482;51.398;7.128;2023-03-01T06:53:42;-2.40;99.90
2945;DHT22;1482;51.398;7.128;2023-03-01T06:56:07;-2.20;99.90
2945;DHT22;1482;51.398;7.128;2023-03-01T06:58:33;-2.10;99.90
2945;DHT22;1482;51.398;7.128;2023-03-01T07:00:58;-2.10;99.90
2945;DHT22;1482;51.398;7.128;2023-03-01T07:03:24;-1.90;99.90
2945;DHT22;1482;51.398;7.128;2023-03-01T07:05:50;-1.90;99.90
2945;DHT22;1482;51.398;7.128;2023-03-01T07:08:17;-1.70;99.90
2945;DHT22;1482;51.398;7.128;2023-03-01T07:10:43;-1.50;99.90
2945;DHT22;1482;51.398;7.128;2023-03-01T07:13:09;-1.30;99.90
2945;DHT22;1482;51.398;7.128;2023-03-01T07:15:34;-1.00;99.90
2945;DHT22;1482;51.398;7.128;2023-03-01T07:18:00;-0.90;99.90
2945;DHT22;1482;51.398;7.128;2023-03-01T07:20:25;-0.70;99.90
2945;DHT22;1482;51.398;7.128;2023-03-01T07:22:54;0.60;99.90
2945;DHT22;1482;51.398;7.128;2023-03-01T07:25:21;3.40;52.20
2945;DHT22;1482;51.398;7.128;2023-03-01T07:27:53;5.80;1.00
2945;DHT22;1482;51.398;7.128;2023-03-01T07:30:20;8.80;1.00
2945;DHT22;1482;51.398;7.128;2023-03-01T07:32:46;11.00;1.00
2945;DHT22;1482;51.398;7.128;2023-03-01T07:35:11;13.10;1.00
2945;DHT22;1482;51.398;7.128;2023-03-01T07:37:37;14.30;1.00
2945;DHT22;1482;51.398;7.128;2023-03-01T07:40:03;15.90;1.00
2945;DHT22;1482;51.398;7.128;2023-03-01T07:42:29;17.20;1.00
2945;DHT22;1482;51.398;7.128;2023-03-01T07:44:54;18.30;1.00
2945;DHT22;1482;51.398;7.128;2023-03-01T07:47:20;18.20;1.00
2945;DHT22;1482;51.398;7.128;2023-03-01T07:49:45;18.50;1.00
2945;DHT22;1482;51.398;7.128;2023-03-01T07:52:11;19.70;1.00
2945;DHT22;1482;51.398;7.128;2023-03-01T07:54:37;19.80;1.00
2945;DHT22;1482;51.398;7.128;2023-03-01T07:57:03;20.70;1.00
2945;DHT22;1482;51.398;7.128;2023-03-01T07:59:28;21.40;1.00
2945;DHT22;1482;51.398;7.128;2023-03-01T08:01:56;21.20;1.00
2945;DHT22;1482;51.398;7.128;2023-03-01T08:04:22;21.50;1.00
2945;DHT22;1482;51.398;7.128;2023-03-01T08:06:50;21.30;1.00
2945;DHT22;1482;51.398;7.128;2023-03-01T08:09:16;21.30;1.00
2945;DHT22;1482;51.398;7.128;2023-03-01T08:11:41;21.00;1.00
2945;DHT22;1482;51.398;7.128;2023-03-01T08:14:07;21.60;1.00
2945;DHT22;1482;51.398;7.128;2023-03-01T08:16:33;20.80;1.00
2945;DHT22;1482;51.398;7.128;2023-03-01T08:19:07;19.60;1.00
2945;DHT22;1482;51.398;7.128;2023-03-01T08:21:33;19.10;1.00
2945;DHT22;1482;51.398;7.128;2023-03-01T08:24:04;19.80;1.00
2945;DHT22;1482;51.398;7.128;2023-03-01T08:26:30;21.10;1.00
2945;DHT22;1482;51.398;7.128;2023-03-01T08:28:55;20.40;1.00
2945;DHT22;1482;51.398;7.128;2023-03-01T08:31:28;21.70;1.00
2945;DHT22;1482;51.398;7.128;2023-03-01T08:33:56;20.70;1.00
2945;DHT22;1482;51.398;7.128;2023-03-01T08:36:31;21.10;1.00
2945;DHT22;1482;51.398;7.128;2023-03-01T08:38:57;19.50;1.00
2945;DHT22;1482;51.398;7.128;2023-03-01T08:41:23;20.40;1.00
2945;DHT22;1482;51.398;7.128;2023-03-01T08:43:49;20.60;1.00
2945;DHT22;1482;51.398;7.128;2023-03-01T08:46:14;20.60;1.00
2945;DHT22;1482;51.398;7.128;2023-03-01T08:48:40;20.40;1.00
2945;DHT22;1482;51.398;7.128;2023-03-01T08:51:10;19.90;1.00
2945;DHT22;1482;51.398;7.128;2023-03-01T08:53:36;21.40;1.00
2945;DHT22;1482;51.398;7.128;2023-03-01T08:56:02;22.40;1.00
2945;DHT22;1482;51.398;7.128;2023-03-01T08:58:28;22.60;1.00
2945;DHT22;1482;51.398;7.128;2023-03-01T09:00:54;23.00;1.00
2945;DHT22;1482;51.398;7.128;2023-03-01T09:03:22;23.30;1.00
2945;DHT22;1482;51.398;7.128;2023-03-01T09:05:47;23.30;1.00
2945;DHT22;1482;51.398;7.128;2023-03-01T09:08:14;22.50;1.00
2945;DHT22;1482;51.398;7.128;2023-03-01T09:10:40;22.80;1.00
2945;DHT22;1482;51.398;7.128;2023-03-01T09:13:05;20.10;1.00
2945;DHT22;1482;51.398;7.128;2023-03-01T09:15:31;21.20;1.00
2945;DHT22;1482;51.398;7.128;2023-03-01T09:17:57;21.10;1.00
2945;DHT22;1482;51.398;7.128;2023-03-01T09:20:24;22.30;1.00
2945;DHT22;1482;51.398;7.128;2023-03-01T09:22:49;20.80;1.00
2945;DHT22;1482;51.398;7.128;2023-03-01T09:25:15;20.40;1.00
2945;DHT22;1482;51.398;7.128;2023-03-01T09:27:41;20.00;1.00
2945;DHT22;1482;51.398;7.128;2023-03-01T09:30:08;19.90;1.00
2945;DHT22;1482;51.398;7.128;2023-03-01T09:32:33;20.60;1.00
2945;DHT22;1482;51.398;7.128;2023-03-01T09:34:59;18.80;1.00
2945;DHT22;1482;51.398;7.128;2023-03-01T09:37:32;20.40;1.00
2945;DHT22;1482;51.398;7.128;2023-03-01T09:39:58;17.70;1.00
2945;DHT22;1482;51.398;7.128;2023-03-01T09:42:24;16.90;1.00
2945;DHT22;1482;51.398;7.128;2023-03-01T09:44:55;14.80;1.00
2945;DHT22;1482;51.398;7.128;2023-03-01T09:47:29;15.10;1.00
2945;DHT22;1482;51.398;7.128;2023-03-01T09:50:03;15.50;1.00
2945;DHT22;1482;51.398;7.128;2023-03-01T09:52:41;14.80;1.00
2945;DHT22;1482;51.398;7.128;2023-03-01T09:55:15;16.40;1.00
2945;DHT22;1482;51.398;7.128;2023-03-01T09:57:48;15.40;1.00
2945;DHT22;1482;51.398;7.128;2023-03-01T10:00:34;16.60;1.00
2945;DHT22;1482;51.398;7.128;2023-03-01T10:03:16;17.70;1.00
2945;DHT22;1482;51.398;7.128;2023-03-01T10:10:56;16.40;1.00
2945;DHT22;1482;51.398;7.128;2023-03-01T10:13:33;15.70;1.00
2945;DHT22;1482;51.398;7.128;2023-03-01T10:16:10;15.00;1.00
2945;DHT22;1482;51.398;7.128;2023-03-01T10:18:37;14.90;1.00
2945;DHT22;1482;51.398;7.128;2023-03-01T10:23:39;14.30;1.00
2945;DHT22;1482;51.398;7.128;2023-03-01T10:26:20;12.50;1.00
2945;DHT22;1482;51.398;7.128;2023-03-01T10:29:04;11.40;1.00
2945;DHT22;1482;51.398;7.128;2023-03-01T10:34:32;10.30;1.00
2945;DHT22;1482;51.398;7.128;2023-03-01T10:37:01;9.40;1.00
2945;DHT22;1482;51.398;7.128;2023-03-01T10:39:27;8.70;1.00
2945;DHT22;1482;51.398;7.128;2023-03-01T10:42:26;8.10;1.00
2945;DHT22;1482;51.398;7.128;2023-03-01T10:44:46;8.40;1.00
2945;DHT22;1482;51.398;7.128;2023-03-01T10:47:16;8.00;1.00
2945;DHT22;1482;51.398;7.128;2023-03-01T10:49:58;8.20;1.00
2945;DHT22;1482;51.398;7.128;2023-03-01T10:52:29;8.20;1.00
2945;DHT22;1482;51.398;7.128;2023-03-01T10:57:42;8.10;1.00
2945;DHT22;1482;51.398;7.128;2023-03-01T11:00:23;8.30;1.00
2945;DHT22;1482;51.398;7.128;2023-03-01T11:05:24;9.20;1.00
2945;DHT22;1482;51.398;7.128;2023-03-01T11:07:55;9.30;1.00
2945;DHT22;1482;51.398;7.128;2023-03-01T11:10:34;8.80;1.00
2945;DHT22;1482;51.398;7.128;2023-03-01T11:13:19;9.00;1.00
2945;DHT22;1482;51.398;7.128;2023-03-01T11:16:03;8.50;1.00
2945;DHT22;1482;51.398;7.128;2023-03-01T11:18:30;8.30;1.00
2945;DHT22;1482;51.398;7.128;2023-03-01T11:20:56;8.80;1.00
2945;DHT22;1482;51.398;7.128;2023-03-01T11:23:24;8.70;1.00
2945;DHT22;1482;51.398;7.128;2023-03-01T11:26:02;9.30;1.00
2945;DHT22;1482;51.398;7.128;2023-03-01T11:28:30;9.20;1.00
2945;DHT22;1482;51.398;7.128;2023-03-01T11:31:05;9.20;1.00
2945;DHT22;1482;51.398;7.128;2023-03-01T11:33:44;8.70;1.00
2945;DHT22;1482;51.398;7.128;2023-03-01T11:36:44;8.50;1.00
2945;DHT22;1482;51.398;7.128;2023-03-01T11:39:39;8.10;1.00
2945;DHT22;1482;51.398;7.128;2023-03-01T11:42:13;8.10;1.00
2945;DHT22;1482;51.398;7.128;2023-03-01T11:44:43;8.00;1.00
2945;DHT22;1482;51.398;7.128;2023-03-01T11:55:25;8.50;1.00
2945;DHT22;1482;51.398;7.128;2023-03-01T12:03:39;8.60;1.00
2945;DHT22;1482;51.398;7.128;2023-03-01T12:06:19;8.30;1.00
2945;DHT22;1482;51.398;7.128;2023-03-01T12:22:59;8.20;1.00
2945;DHT22;1482;51.398;7.128;2023-03-01T12:25:45;8.10;1.00
2945;DHT22;1482;51.398;7.128;2023-03-01T12:28:48;8.60;1.00
2945;DHT22;1482;51.398;7.128;2023-03-01T12:32:09;8.50;1.00
2945;DHT22;1482;51.398;7.128;2023-03-01T12:34:47;9.00;1.00
2945;DHT22;1482;51.398;7.128;2023-03-01T12:37:42;9.00;1.00
2945;DHT22;1482;51.398;7.128;2023-03-01T12:51:27;9.30;1.00
2945;DHT22;1482;51.398;7.128;2023-03-01T12:53:55;9.00;1.00
2945;DHT22;1482;51.398;7.128;2023-03-01T12:56:25;8.60;1.00
2945;DHT22;1482;51.398;7.128;2023-03-01T13:04:26;8.60;1.00
2945;DHT22;1482;51.398;7.128;2023-03-01T13:07:31;8.70;1.00
2945;DHT22;1482;51.398;7.128;2023-03-01T13:10:23;8.90;1.00
2945;DHT22;1482;51.398;7.128;2023-03-01T13:13:02;8.30;1.00
2945;DHT22;1482;51.398;7.128;2023-03-01T13:15:30;8.20;1.00
2945;DHT22;1482;51.398;7.128;2023-03-01T13:17:59;8.10;1.00
2945;DHT22;1482;51.398;7.128;2023-03-01T13:20:34;8.10;1.00
2945;DHT22;1482;51.398;7.128;2023-03-01T13:33:54;8.40;1.00
2945;DHT22;1482;51.398;7.128;2023-03-01T13:50:00;8.20;1.00
2945;DHT22;1482;51.398;7.128;2023-03-01T13:52:42;8.10;1.00
2945;DHT22;1482;51.398;7.128;2023-03-01T13:57:45;8.40;1.00
2945;DHT22;1482;51.398;7.128;2023-03-01T14:00:38;8.30;1.00
2945;DHT22;1482;51.398;7.128;2023-03-01T14:03:12;8.00;1.00
2945;DHT22;1482;51.398;7.128;2023-03-01T14:05:41;7.80;1.00
2945;DHT22;1482;51.398;7.128;2023-03-01T14:08:19;7.50;1.00
2945;DHT22;1482;51.398;7.128;2023-03-01T14:20:08;7.10;1.00
2945;DHT22;1482;51.398;7.128;2023-03-01T14:22:36;7.30;1.00
2945;DHT22;1482;51.398;7.128;2023-03-01T14:25:06;7.30;1.00
2945;DHT22;1482;51.398;7.128;2023-03-01T14:27:41;7.30;1.00
2945;DHT22;1482;51.398;7.128;2023-03-01T14:30:43;7.40;1.00
2945;DHT22;1482;51.398;7.128;2023-03-01T14:33:38;7.40;1.00
2945;DHT22;1482;51.398;7.128;2023-03-01T14:36:08;7.20;1.00
2945;DHT22;1482;51.398;7.128;2023-03-01T14:38:46;7.10;1.00
2945;DHT22;1482;51.398;7.128;2023-03-01T14:41:16;6.80;1.00
2945;DHT22;1482;51.398;7.128;2023-03-01T14:43:50;7.00;1.00
2945;DHT22;1482;51.398;7.128;2023-03-01T14:46:29;7.30;1.00
2945;DHT22;1482;51.398;7.128;2023-03-01T14:49:01;7.40;1.00
2945;DHT22;1482;51.398;7.128;2023-03-01T14:51:27;7.50;1.00
2945;DHT22;1482;51.398;7.128;2023-03-01T14:53:52;7.40;1.00
2945;DHT22;1482;51.398;7.128;2023-03-01T14:56:19;7.40;1.00
2945;DHT22;1482;51.398;7.128;2023-03-01T14:58:45;7.50;1.00
2945;DHT22;1482;51.398;7.128;2023-03-01T15:01:15;7.40;1.00
2945;DHT22;1482;51.398;7.128;2023-03-01T15:03:47;7.30;1.00
2945;DHT22;1482;51.398;7.128;2023-03-01T15:06:22;7.00;1.00
2945;DHT22;1482;51.398;7.128;2023-03-01T15:08:51;7.10;1.00
2945;DHT22;1482;51.398;7.128;2023-03-01T15:11:26;7.00;1.00
2945;DHT22;1482;51.398;7.128;2023-03-01T15:13:53;6.90;1.00
2945;DHT22;1482;51.398;7.128;2023-03-01T15:16:23;7.00;1.00
2945;DHT22;1482;51.398;7.128;2023-03-01T15:18:52;7.00;1.00
2945;DHT22;1482;51.398;7.128;2023-03-01T15:23:50;6.80;1.00
2945;DHT22;1482;51.398;7.128;2023-03-01T15:26:39;6.60;1.00
2945;DHT22;1482;51.398;7.128;2023-03-01T15:29:16;6.60;1.00
2945;DHT22;1482;51.398;7.128;2023-03-01T15:31:42;6.70;1.00
2945;DHT22;1482;51.398;7.128;2023-03-01T15:34:23;6.50;1.00
2945;DHT22;1482;51.398;7.128;2023-03-01T15:36:52;6.40;1.00
2945;DHT22;1482;51.398;7.128;2023-03-01T15:39:30;6.40;1.00
2945;DHT22;1482;51.398;7.128;2023-03-01T15:41:58;6.30;1.00
2945;DHT22;1482;51.398;7.128;2023-03-01T15:44:35;6.30;1.00
2945;DHT22;1482;51.398;7.128;2023-03-01T15:47:01;6.20;1.00
2945;DHT22;1482;51.398;7.128;2023-03-01T15:49:36;6.00;1.00
2945;DHT22;1482;51.398;7.128;2023-03-01T15:52:04;6.10;1.00
2945;DHT22;1482;51.398;7.128;2023-03-01T15:54:30;6.10;1.00
2945;DHT22;1482;51.398;7.128;2023-03-01T15:56:56;6.00;1.00
2945;DHT22;1482;51.398;7.128;2023-03-01T15:59:22;5.90;1.00
2945;DHT22;1482;51.398;7.128;2023-03-01T16:01:48;5.90;1.00
2945;DHT22;1482;51.398;7.128;2023-03-01T16:04:16;5.90;1.00
2945;DHT22;1482;51.398;7.128;2023-03-01T16:06:53;5.80;1.00
2945;DHT22;1482;51.398;7.128;2023-03-01T16:09:23;5.90;1.00
2945;DHT22;1482;51.398;7.128;2023-03-01T16:11:49;5.90;1.00
2945;DHT22;1482;51.398;7.128;2023-03-01T16:14:15;5.90;1.00
2945;DHT22;1482;51.398;7.128;2023-03-01T16:16:42;5.90;1.00
2945;DHT22;1482;51.398;7.128;2023-03-01T16:19:07;5.90;1.00
2945;DHT22;1482;51.398;7.128;2023-03-01T16:21:33;5.80;1.00
2945;DHT22;1482;51.398;7.128;2023-03-01T16:23:58;5.90;1.00
2945;DHT22;1482;51.398;7.128;2023-03-01T16:26:24;5.80;1.00
2945;DHT22;1482;51.398;7.128;2023-03-01T16:28:49;5.80;1.00
2945;DHT22;1482;51.398;7.128;2023-03-01T16:31:19;5.80;1.00
2945;DHT22;1482;51.398;7.128;2023-03-01T16:33:44;5.80;1.00
2945;DHT22;1482;51.398;7.128;2023-03-01T16:36:15;5.70;1.00
2945;DHT22;1482;51.398;7.128;2023-03-01T16:38:41;5.70;1.00
2945;DHT22;1482;51.398;7.128;2023-03-01T16:41:12;5.60;1.00
2945;DHT22;1482;51.398;7.128;2023-03-01T16:43:38;5.50;1.00
2945;DHT22;1482;51.398;7.128;2023-03-01T16:46:15;5.50;1.00
2945;DHT22;1482;51.398;7.128;2023-03-01T16:48:41;5.40;1.00
2945;DHT22;1482;51.398;7.128;2023-03-01T16:51:07;5.40;1.00
2945;DHT22;1482;51.398;7.128;2023-03-01T16:53:34;5.30;1.00
2945;DHT22;1482;51.398;7.128;2023-03-01T16:56:03;5.30;1.00
2945;DHT22;1482;51.398;7.128;2023-03-01T16:58:29;5.30;1.00
2945;DHT22;1482;51.398;7.128;2023-03-01T17:00:55;5.20;1.00
2945;DHT22;1482;51.398;7.128;2023-03-01T17:03:23;5.20;1.00
2945;DHT22;1482;51.398;7.128;2023-03-01T17:05:49;5.30;1.00
2945;DHT22;1482;51.398;7.128;2023-03-01T17:08:15;5.20;1.00
2945;DHT22;1482;51.398;7.128;2023-03-01T17:10:41;5.10;1.00
2945;DHT22;1482;51.398;7.128;2023-03-01T17:13:08;5.10;1.00
2945;DHT22;1482;51.398;7.128;2023-03-01T17:15:34;5.10;1.00
2945;DHT22;1482;51.398;7.128;2023-03-01T17:18:00;5.00;1.00
2945;DHT22;1482;51.398;7.128;2023-03-01T17:20:26;5.00;1.00
2945;DHT22;1482;51.398;7.128;2023-03-01T17:22:52;5.00;1.00
2945;DHT22;1482;51.398;7.128;2023-03-01T17:25:18;4.80;1.00
2945;DHT22;1482;51.398;7.128;2023-03-01T17:27:43;4.80;1.00
2945;DHT22;1482;51.398;7.128;2023-03-01T17:30:11;4.80;1.00
2945;DHT22;1482;51.398;7.128;2023-03-01T17:32:37;4.80;1.00
2945;DHT22;1482;51.398;7.128;2023-03-01T17:35:02;4.70;1.00
2945;DHT22;1482;51.398;7.128;2023-03-01T17:37:28;4.70;1.00
2945;DHT22;1482;51.398;7.128;2023-03-01T17:39:54;4.60;1.00
2945;DHT22;1482;51.398;7.128;2023-03-01T17:42:19;4.60;1.00
2945;DHT22;1482;51.398;7.128;2023-03-01T17:44:45;4.60;1.00
2945;DHT22;1482;51.398;7.128;2023-03-01T17:47:10;4.50;1.00
2945;DHT22;1482;51.398;7.128;2023-03-01T17:49:36;4.50;1.00
2945;DHT22;1482;51.398;7.128;2023-03-01T17:52:02;4.50;1.00
2945;DHT22;1482;51.398;7.128;2023-03-01T17:54:27;4.50;1.00
2945;DHT22;1482;51.398;7.128;2023-03-01T17:56:53;4.40;1.00
2945;DHT22;1482;51.398;7.128;2023-03-01T17:59:20;4.40;1.00
2945;DHT22;1482;51.398;7.128;2023-03-01T18:01:46;4.40;1.00
2945;DHT22;1482;51.398;7.128;2023-03-01T18:04:11;4.20;1.00
2945;DHT22;1482;51.398;7.128;2023-03-01T18:06:37;4.30;1.00
2945;DHT22;1482;51.398;7.128;2023-03-01T18:09:05;4.20;1.00
2945;DHT22;1482;51.398;7.128;2023-03-01T18:11:32;4.20;1.00
2945;DHT22;1482;51.398;7.128;2023-03-01T18:13:58;4.10;1.00
2945;DHT22;1482;51.398;7.128;2023-03-01T18:16:24;4.20;1.00
2945;DHT22;1482;51.398;7.128;2023-03-01T18:18:54;4.00;1.00
2945;DHT22;1482;51.398;7.128;2023-03-01T18:21:20;4.00;1.00
2945;DHT22;1482;51.398;7.128;2023-03-01T18:23:47;4.00;1.00
2945;DHT22;1482;51.398;7.128;2023-03-01T18:26:13;4.00;1.00